createdAt,value
2023-03-02T00:00:49.041Z,36.92
2023-03-02T00:02:50.632Z,37.19
2023-03-02T00:04:56.799Z,37.28
2023-03-02T00:07:01.754Z,37.34
2023-03-02T00:09:04.873Z,37.59
2023-03-02T00:11:06.635Z,37.77
2023-03-02T00:13:08.333Z,37.88
2023-03-02T00:15:10.484Z,37.82
2023-03-02T00:17:12.053Z,37.67
2023-03-02T00:19:13.660Z,37.49
2023-03-02T00:21:16.594Z,37.76
2023-03-02T00:23:18.165Z,37.51
2023-03-02T00:25:19.879Z,37.67
2023-03-02T00:27:21.450Z,37.33
2023-03-02T00:29:23.106Z,37.72
2023-03-02T00:31:30.880Z,37.70
2023-03-02T00:33:32.517Z,37.71
2023-03-02T00:35:37.765Z,37.75
2023-03-02T00:37:40.760Z,37.92
2023-03-02T00:39:42.698Z,37.97
2023-03-02T00:41:44.313Z,37.85
2023-03-02T00:43:45.874Z,37.87
2023-03-02T00:45:47.397Z,37.88
2023-03-02T00:47:48.985Z,37.99
2023-03-02T00:49:50.869Z,37.83
2023-03-02T00:51:52.487Z,37.85
2023-03-02T00:53:55.418Z,38.04
2023-03-02T00:55:57.030Z,38.00
2023-03-02T00:58:01.237Z,37.98
2023-03-02T01:00:03.919Z,38.22
2023-03-02T01:02:06.193Z,38.30
2023-03-02T01:04:07.740Z,38.19
2023-03-02T01:06:15.130Z,38.57
2023-03-02T01:08:16.746Z,38.51
2023-03-02T01:10:19.892Z,38.76
2023-03-02T01:12:21.466Z,38.54
2023-03-02T01:14:23.161Z,38.49
2023-03-02T01:16:24.728Z,38.79
2023-03-02T01:18:26.290Z,38.95
2023-03-02T01:20:28.693Z,38.87
2023-03-02T01:22:30.231Z,38.91
2023-03-02T01:24:32.216Z,38.55
2023-03-02T01:26:38.005Z,38.85
2023-03-02T01:28:39.585Z,38.75
2023-03-02T01:30:41.101Z,38.62
2023-03-02T01:32:42.721Z,38.80
2023-03-02T01:34:44.521Z,38.67
2023-03-02T01:36:46.076Z,38.64
2023-03-02T01:38:47.852Z,38.64
2023-03-02T01:40:49.386Z,38.65
2023-03-02T01:42:57.750Z,38.60
2023-03-02T01:44:59.471Z,38.55
2023-03-02T01:47:02.599Z,38.45
2023-03-02T01:49:06.962Z,39.01
2023-03-02T01:51:11.411Z,38.83
2023-03-02T01:53:14.330Z,38.62
2023-03-02T01:55:20.029Z,39.05
2023-03-02T01:57:26.052Z,38.93
2023-03-02T01:59:31.680Z,38.71
2023-03-02T02:01:37.039Z,38.57
2023-03-02T02:03:38.825Z,38.80
2023-03-02T02:05:44.039Z,39.05
2023-03-02T02:07:45.866Z,38.76
2023-03-02T02:09:51.512Z,39.02
2023-03-02T02:11:53.099Z,39.02
2023-03-02T02:13:58.112Z,39.05
2023-03-02T02:16:01.137Z,38.99
2023-03-02T02:18:02.760Z,38.81
2023-03-02T02:20:20.401Z,39.03
2023-03-02T02:22:36.292Z,39.27
2023-03-02T02:24:44.035Z,38.89
2023-03-02T02:26:49.902Z,39.07
2023-03-02T02:28:57.865Z,39.08
2023-03-02T02:31:10.878Z,39.00
2023-03-02T02:33:16.660Z,39.30
2023-03-02T02:35:21.344Z,38.94
2023-03-02T02:37:27.515Z,38.80
2023-03-02T02:39:33.497Z,38.94
2023-03-02T02:41:38.637Z,38.71
2023-03-02T02:43:41.751Z,39.11
2023-03-02T02:45:44.326Z,39.04
2023-03-02T02:47:46.184Z,38.80
2023-03-02T02:49:52.857Z,38.71
2023-03-02T02:51:54.558Z,38.96
2023-03-02T02:53:59.072Z,38.62
2023-03-02T02:56:01.434Z,38.82
2023-03-02T02:58:09.052Z,39.25
2023-03-02T03:00:18.926Z,39.01
2023-03-02T03:02:25.802Z,39.19
2023-03-02T03:04:30.630Z,39.18
2023-03-02T03:06:34.739Z,38.98
2023-03-02T03:08:54.334Z,38.92
2023-03-02T03:10:57.717Z,38.90
2023-03-02T03:12:59.409Z,38.93
2023-03-02T03:15:10.076Z,38.95
2023-03-02T03:17:13.280Z,38.98
2023-03-02T03:19:19.960Z,39.01
2023-03-02T03:21:21.597Z,38.94
2023-03-02T03:23:23.307Z,38.86
2023-03-02T03:25:26.553Z,38.91
2023-03-02T03:27:28.314Z,39.04
2023-03-02T03:29:30.320Z,39.06
2023-03-02T03:31:32.262Z,39.14
2023-03-02T03:33:35.166Z,39.11
2023-03-02T03:35:37.334Z,39.21
2023-03-02T03:37:40.781Z,39.14
2023-03-02T03:39:44.751Z,39.16
2023-03-02T03:41:48.144Z,39.27
2023-03-02T03:43:50.086Z,39.35
2023-03-02T03:45:51.658Z,39.40
2023-03-02T03:47:53.203Z,39.34
2023-03-02T03:49:56.527Z,39.15
2023-03-02T03:51:58.287Z,39.35
2023-03-02T03:54:00.007Z,39.70
2023-03-02T03:56:02.195Z,39.33
2023-03-02T03:58:04.100Z,39.53
2023-03-02T04:00:09.328Z,39.41
2023-03-02T04:02:11.231Z,39.49
2023-03-02T04:04:15.635Z,39.80
2023-03-02T04:06:18.856Z,39.78
2023-03-02T04:08:20.665Z,39.73
2023-03-02T04:10:22.485Z,39.89
2023-03-02T04:12:24.415Z,40.06
2023-03-02T04:14:26.346Z,40.21
2023-03-02T04:16:28.249Z,40.02
2023-03-02T04:18:32.824Z,40.13
2023-03-02T04:20:37.293Z,40.16
2023-03-02T04:22:40.706Z,40.07
2023-03-02T04:24:42.778Z,39.74
2023-03-02T04:26:46.782Z,40.14
2023-03-02T04:28:48.564Z,40.41
2023-03-02T04:30:50.379Z,40.40
2023-03-02T04:32:53.086Z,40.16
2023-03-02T04:34:54.829Z,40.15
2023-03-02T04:36:59.079Z,39.97
2023-03-02T04:39:06.015Z,40.03
2023-03-02T04:41:08.204Z,39.96
2023-03-02T04:43:10.057Z,40.36
2023-03-02T04:45:13.241Z,40.81
2023-03-02T04:47:15.310Z,40.45
2023-03-02T04:49:18.565Z,40.29
2023-03-02T04:51:23.182Z,40.54
2023-03-02T04:53:24.993Z,40.35
2023-03-02T04:55:28.250Z,40.25
2023-03-02T04:57:29.994Z,40.24
2023-03-02T04:59:31.724Z,40.17
2023-03-02T05:01:36.553Z,40.12
2023-03-02T05:03:38.439Z,40.13
2023-03-02T05:05:40.287Z,40.18
2023-03-02T05:07:42.635Z,40.39
2023-03-02T05:09:44.549Z,40.64
2023-03-02T05:11:47.737Z,40.91
2023-03-02T05:13:49.874Z,40.93
2023-03-02T05:15:51.902Z,40.70
2023-03-02T05:17:53.888Z,40.81
2023-03-02T05:19:55.624Z,40.76
2023-03-02T05:21:57.519Z,40.81
2023-03-02T05:23:59.535Z,40.88
2023-03-02T05:26:01.848Z,40.86
2023-03-02T05:28:06.190Z,40.95
2023-03-02T05:30:09.287Z,40.83
2023-03-02T05:32:11.188Z,40.81
2023-03-02T05:36:47.628Z,40.80
2023-03-02T05:38:52.533Z,40.70
2023-03-02T05:40:54.541Z,41.01
2023-03-02T05:42:56.454Z,40.98
2023-03-02T05:45:01.947Z,40.92
2023-03-02T05:47:03.796Z,40.94
2023-03-02T05:49:05.824Z,40.54
2023-03-02T05:51:11.206Z,41.10
2023-03-02T05:53:13.073Z,41.19
2023-03-02T05:55:16.390Z,41.22
2023-03-02T05:57:18.216Z,41.44
2023-03-02T05:59:20.094Z,41.63
2023-03-02T06:01:23.370Z,41.21
2023-03-02T06:03:28.166Z,41.28
2023-03-02T06:05:30.248Z,41.34
2023-03-02T06:07:31.977Z,41.36
2023-03-02T06:09:33.862Z,41.38
2023-03-02T06:11:35.623Z,41.11
2023-03-02T06:13:37.945Z,41.55
2023-03-02T06:15:39.941Z,41.64
2023-03-02T06:17:43.318Z,41.32
2023-03-02T06:19:45.198Z,41.46
2023-03-02T06:21:46.890Z,41.56
2023-03-02T06:23:48.721Z,41.49
2023-03-02T06:25:50.639Z,41.85
2023-03-02T06:27:52.871Z,41.94
2023-03-02T06:29:54.837Z,41.97
2023-03-02T06:31:56.642Z,41.78
2023-03-02T06:34:01.147Z,41.46
2023-03-02T06:36:03.513Z,41.87
2023-03-02T06:38:05.321Z,41.94
2023-03-02T06:40:08.576Z,41.91
2023-03-02T06:42:10.466Z,41.80
2023-03-02T06:44:12.689Z,41.91
2023-03-02T06:46:14.548Z,41.80
2023-03-02T06:48:16.581Z,41.87
2023-03-02T06:50:20.157Z,41.61
2023-03-02T06:52:22.108Z,41.63
2023-03-02T06:54:24.183Z,42.17
2023-03-02T06:56:26.361Z,42.08
2023-03-02T06:58:28.171Z,42.11
2023-03-02T07:00:29.918Z,42.04
2023-03-02T07:02:31.580Z,42.03
2023-03-02T07:04:33.431Z,42.02
2023-03-02T07:06:36.997Z,42.01
2023-03-02T07:08:39.121Z,41.80
2023-03-02T07:10:40.799Z,41.79
2023-03-02T07:12:45.337Z,41.96
2023-03-02T07:14:47.259Z,42.19
2023-03-02T07:16:49.241Z,42.08
2023-03-02T07:18:51.314Z,42.21
2023-03-02T07:20:53.048Z,42.12
2023-03-02T07:22:56.631Z,42.50
2023-03-02T07:24:58.468Z,42.47
2023-03-02T07:27:00.276Z,42.79
2023-03-02T07:29:01.991Z,42.84
2023-03-02T07:31:04.012Z,42.76
2023-03-02T07:33:05.758Z,43.07
2023-03-02T07:35:08.082Z,42.89
2023-03-02T07:37:10.019Z,43.09
2023-03-02T07:39:18.748Z,42.88
2023-03-02T07:41:22.788Z,42.89
2023-03-02T07:43:24.819Z,42.81
2023-03-02T07:45:26.597Z,42.67
2023-03-02T07:47:28.329Z,42.61
2023-03-02T07:49:30.430Z,42.05
2023-03-02T07:51:32.547Z,41.95
2023-03-02T07:53:34.618Z,41.72
2023-03-02T07:55:40.444Z,41.85
2023-03-02T07:57:42.154Z,42.04
2023-03-02T07:59:44.455Z,42.23
2023-03-02T08:01:46.222Z,41.77
2023-03-02T08:03:47.929Z,41.44
2023-03-02T08:05:49.662Z,41.15
2023-03-02T08:07:51.452Z,40.89
2023-03-02T08:09:53.244Z,40.22
2023-03-02T08:11:56.385Z,40.46
2023-03-02T08:13:59.764Z,39.74
2023-03-02T08:16:03.040Z,40.47
2023-03-02T08:18:04.846Z,39.51
2023-03-02T08:20:07.638Z,39.05
2023-03-02T08:22:14.774Z,39.18
2023-03-02T08:24:16.565Z,38.81
2023-03-02T08:26:19.817Z,38.17
2023-03-02T08:28:23.417Z,37.86
2023-03-02T08:30:25.104Z,37.75
2023-03-02T08:32:26.923Z,37.99
2023-03-02T08:34:31.214Z,38.13
2023-03-02T08:36:33.324Z,37.37
2023-03-02T08:38:35.657Z,37.32
2023-03-02T08:40:37.605Z,38.43
2023-03-02T08:42:39.246Z,37.98
2023-03-02T08:44:42.476Z,37.60
2023-03-02T08:46:44.222Z,36.23
2023-03-02T08:48:46.356Z,37.13
2023-03-02T08:50:55.605Z,36.94
2023-03-02T08:52:59.208Z,36.67
2023-03-02T08:55:03.296Z,36.65
2023-03-02T08:57:09.727Z,36.28
2023-03-02T08:59:13.317Z,35.81
2023-03-02T09:01:18.483Z,36.23
2023-03-02T09:03:20.918Z,36.66
2023-03-02T09:05:22.701Z,35.78
2023-03-02T09:07:24.258Z,36.16
2023-03-02T09:09:26.337Z,35.88
2023-03-02T09:11:28.230Z,35.83
2023-03-02T09:13:29.912Z,36.13
2023-03-02T09:15:34.078Z,35.71
2023-03-02T09:17:37.000Z,34.76
2023-03-02T09:19:38.648Z,34.37
2023-03-02T09:21:40.645Z,34.66
2023-03-02T09:23:43.826Z,35.23
2023-03-02T09:25:46.438Z,34.80
2023-03-02T09:27:48.142Z,33.86
2023-03-02T09:29:49.953Z,33.23
2023-03-02T09:31:57.773Z,33.95
2023-03-02T09:34:00.953Z,32.75
2023-03-02T09:36:05.875Z,32.97
2023-03-02T09:38:07.837Z,33.74
2023-03-02T09:40:18.733Z,32.91
2023-03-02T09:43:01.104Z,33.74
2023-03-02T09:45:35.559Z,32.60
2023-03-02T09:47:47.478Z,33.67
2023-03-02T09:50:00.769Z,33.29
2023-03-02T09:52:10.807Z,33.54
2023-03-02T09:54:15.440Z,32.74
2023-03-02T09:56:19.471Z,32.66
2023-03-02T09:58:24.979Z,32.52
2023-03-02T10:00:30.627Z,32.34
2023-03-02T10:02:37.144Z,32.21
2023-03-02T10:04:44.781Z,31.52
2023-03-02T10:06:51.465Z,31.04
2023-03-02T10:08:53.215Z,31.93
2023-03-02T10:11:02.303Z,32.18
2023-03-02T10:13:17.378Z,33.30
2023-03-02T10:15:24.656Z,32.74
2023-03-02T10:17:56.511Z,31.81
2023-03-02T10:20:03.011Z,31.60
2023-03-02T10:22:15.715Z,31.55
2023-03-02T10:24:28.917Z,31.06
2023-03-02T10:26:38.644Z,30.54
2023-03-02T10:28:49.184Z,29.74
2023-03-02T10:30:56.982Z,29.53
2023-03-02T10:33:03.304Z,29.87
2023-03-02T10:35:16.175Z,29.17
2023-03-02T10:37:21.868Z,29.00
2023-03-02T10:39:23.688Z,28.80
2023-03-02T10:41:30.606Z,29.06
2023-03-02T10:43:38.901Z,28.12
2023-03-02T10:45:41.223Z,28.10
2023-03-02T10:47:42.937Z,27.91
2023-03-02T10:49:48.031Z,27.61
2023-03-02T10:51:56.254Z,27.43
2023-03-02T10:54:07.598Z,27.10
2023-03-02T10:56:20.303Z,28.08
2023-03-02T10:58:25.412Z,27.73
2023-03-02T11:00:29.940Z,28.05
2023-03-02T11:02:34.874Z,27.53
2023-03-02T11:04:36.807Z,27.11
2023-03-02T11:06:38.799Z,27.12
2023-03-02T11:08:40.662Z,26.73
2023-03-02T11:10:54.186Z,27.22
2023-03-02T11:12:56.861Z,28.01
2023-03-02T11:15:16.879Z,27.78
2023-03-02T11:17:31.343Z,26.49
2023-03-02T11:19:37.742Z,26.83
2023-03-02T11:21:44.078Z,26.71
2023-03-02T11:23:55.924Z,26.72
2023-03-02T11:26:05.422Z,26.80
2023-03-02T11:28:16.599Z,26.22
2023-03-02T11:30:22.443Z,25.84
2023-03-02T11:32:31.181Z,26.09
2023-03-02T11:34:40.652Z,25.21
2023-03-02T11:36:48.946Z,25.03
2023-03-02T11:38:54.584Z,24.90
2023-03-02T11:41:02.827Z,25.28
2023-03-02T11:43:04.691Z,24.88
2023-03-02T11:45:17.837Z,24.96
2023-03-02T11:47:21.971Z,24.98
2023-03-02T11:49:35.749Z,24.71
2023-03-02T11:51:47.288Z,25.01
2023-03-02T11:53:55.977Z,25.10
2023-03-02T11:55:57.674Z,24.07
2023-03-02T11:58:07.209Z,24.52
2023-03-02T12:00:21.376Z,24.25
2023-03-02T12:02:23.289Z,24.48
2023-03-02T12:04:29.471Z,24.18
2023-03-02T12:06:39.660Z,23.82
2023-03-02T12:08:44.353Z,24.34
2023-03-02T12:10:57.729Z,24.18
2023-03-02T12:13:12.589Z,24.80
2023-03-02T12:15:37.782Z,23.89
2023-03-02T12:17:42.450Z,24.10
2023-03-02T12:19:44.370Z,24.12
2023-03-02T12:21:58.731Z,23.75
2023-03-02T12:24:00.922Z,24.92
2023-03-02T12:26:07.510Z,25.63
2023-03-02T12:28:27.289Z,24.31
2023-03-02T12:30:28.881Z,25.36
2023-03-02T12:32:31.566Z,25.39
2023-03-02T12:34:36.894Z,25.43
2023-03-02T12:36:42.938Z,24.69
2023-03-02T12:38:55.487Z,25.38
2023-03-02T12:41:14.561Z,26.02
2023-03-02T12:43:29.782Z,26.67
2023-03-02T12:45:42.932Z,26.59
2023-03-02T12:47:50.001Z,26.80
2023-03-02T12:49:54.950Z,27.46
2023-03-02T12:51:58.659Z,27.35
2023-03-02T12:54:05.083Z,27.98
2023-03-02T12:56:08.262Z,26.79
2023-03-02T12:58:17.226Z,26.80
2023-03-02T13:00:24.686Z,26.96
2023-03-02T13:02:28.311Z,27.19
2023-03-02T13:04:29.909Z,26.92
2023-03-02T13:06:39.182Z,27.51
2023-03-02T13:08:44.517Z,27.62
2023-03-02T13:10:50.328Z,27.87
2023-03-02T13:12:52.161Z,27.69
2023-03-02T13:14:56.999Z,29.03
2023-03-02T13:17:02.077Z,28.12
2023-03-02T13:19:11.534Z,28.00
2023-03-02T13:21:14.775Z,29.39
2023-03-02T13:23:17.648Z,28.07
2023-03-02T13:25:27.183Z,28.56
2023-03-02T13:27:29.808Z,28.17
2023-03-02T13:29:31.522Z,29.25
2023-03-02T13:31:34.830Z,29.25
2023-03-02T13:33:44.710Z,29.32
2023-03-02T13:35:47.741Z,29.72
2023-03-02T13:37:59.833Z,29.75
2023-03-02T13:40:03.946Z,29.93
2023-03-02T13:42:05.586Z,29.86
2023-03-02T13:44:18.746Z,29.88
2023-03-02T13:46:34.699Z,30.94
2023-03-02T13:48:37.982Z,30.68
2023-03-02T13:50:39.553Z,30.51
2023-03-02T13:52:41.132Z,30.47
2023-03-02T13:54:45.110Z,30.52
2023-03-02T13:56:46.823Z,30.11
2023-03-02T13:58:48.386Z,30.62
2023-03-02T14:00:50.957Z,29.99
2023-03-02T14:02:52.515Z,29.62
2023-03-02T14:04:56.580Z,32.03
2023-03-02T14:06:58.254Z,30.03
2023-03-02T14:08:59.821Z,29.89
2023-03-02T14:11:03.688Z,30.68
2023-03-02T14:13:08.215Z,30.58
2023-03-02T14:15:14.298Z,29.96
2023-03-02T14:17:21.287Z,30.11
2023-03-02T14:19:22.931Z,30.21
2023-03-02T14:21:26.466Z,30.11
2023-03-02T14:23:28.149Z,30.23
2023-03-02T14:25:32.979Z,30.20
2023-03-02T14:27:34.516Z,30.05
2023-03-02T14:29:36.075Z,29.96
2023-03-02T14:31:37.722Z,29.95
2023-03-02T14:33:39.275Z,29.69
2023-03-02T14:35:41.276Z,29.52
2023-03-02T14:37:47.218Z,29.82
2023-03-02T14:39:50.717Z,29.97
2023-03-02T14:41:54.645Z,29.98
2023-03-02T14:43:56.417Z,29.74
2023-03-02T14:45:58.121Z,29.78
2023-03-02T14:47:59.678Z,29.82
2023-03-02T14:50:01.221Z,30.14
2023-03-02T14:52:06.098Z,29.86
2023-03-02T14:54:14.271Z,29.79
2023-03-02T14:56:17.423Z,29.70
2023-03-02T14:58:25.612Z,29.68
2023-03-02T15:00:27.896Z,30.15
2023-03-02T15:02:29.564Z,30.46
2023-03-02T15:04:31.254Z,30.60
2023-03-02T15:06:36.402Z,30.46
2023-03-02T15:08:38.139Z,30.70
2023-03-02T15:10:42.109Z,30.38
2023-03-02T15:12:43.737Z,31.00
2023-03-02T15:14:45.412Z,32.70
2023-03-02T15:16:46.955Z,31.46
2023-03-02T15:18:48.738Z,31.63
2023-03-02T15:20:50.374Z,31.30
2023-03-02T15:22:52.563Z,31.64
2023-03-02T15:24:54.293Z,31.74
2023-03-02T15:26:57.258Z,31.51
2023-03-02T15:28:58.810Z,31.45
2023-03-02T15:31:09.650Z,31.67
2023-03-02T15:33:11.373Z,31.32
2023-03-02T15:35:12.951Z,31.17
2023-03-02T15:37:15.248Z,31.11
2023-03-02T15:39:17.089Z,31.59
2023-03-02T15:41:28.209Z,31.41
2023-03-02T15:43:31.199Z,31.97
2023-03-02T15:45:32.876Z,32.09
2023-03-02T15:47:34.498Z,31.92
2023-03-02T15:49:36.224Z,31.67
2023-03-02T15:51:38.167Z,31.78
2023-03-02T15:53:40.369Z,31.82
2023-03-02T15:55:41.953Z,31.95
2023-03-02T15:57:43.529Z,31.43
2023-03-02T15:59:46.439Z,31.56
2023-03-02T16:01:48.303Z,31.23
2023-03-02T16:03:50.056Z,31.29
2023-03-02T16:05:52.153Z,31.32
2023-03-02T16:07:53.690Z,31.91
2023-03-02T16:09:55.304Z,32.21
2023-03-02T16:11:57.515Z,31.86
2023-03-02T16:13:59.098Z,32.32
2023-03-02T16:16:03.195Z,32.59
2023-03-02T16:18:04.824Z,32.64
2023-03-02T16:20:07.100Z,32.95
2023-03-02T16:22:08.763Z,33.37
2023-03-02T16:24:10.511Z,32.99
2023-03-02T16:26:14.815Z,33.14
2023-03-02T16:28:17.825Z,33.27
2023-03-02T16:30:21.933Z,33.22
2023-03-02T16:32:26.066Z,33.22
2023-03-02T16:34:27.678Z,33.43
2023-03-02T16:36:29.377Z,33.40
2023-03-02T16:38:30.964Z,32.93
2023-03-02T16:40:33.079Z,33.02
2023-03-02T16:42:34.689Z,33.20
2023-03-02T16:44:36.267Z,33.02
2023-03-02T16:46:38.339Z,32.98
2023-03-02T16:48:41.798Z,33.00
2023-03-02T16:50:43.976Z,33.64
2023-03-02T16:52:45.753Z,33.53
2023-03-02T16:54:47.359Z,33.65
2023-03-02T16:56:48.953Z,34.30
2023-03-02T16:58:50.528Z,34.71
2023-03-02T17:00:52.261Z,35.71
2023-03-02T17:02:54.107Z,34.83
2023-03-02T17:04:57.121Z,35.42
2023-03-02T17:07:00.696Z,35.66
2023-03-02T17:09:02.569Z,34.46
2023-03-02T17:11:04.618Z,34.47
2023-03-02T17:13:06.661Z,34.80
2023-03-02T17:15:09.480Z,34.63
2023-03-02T17:17:11.090Z,35.05
2023-03-02T17:19:12.597Z,34.48
2023-03-02T17:21:16.584Z,34.72
2023-03-02T17:23:18.228Z,33.26
2023-03-02T17:25:19.816Z,33.75
2023-03-02T17:27:25.489Z,32.72
2023-03-02T17:29:27.670Z,32.72
2023-03-02T17:31:29.290Z,33.39
2023-03-02T17:33:30.864Z,32.51
2023-03-02T17:35:32.458Z,32.32
2023-03-02T17:37:35.370Z,32.18
2023-03-02T17:39:36.933Z,32.26
2023-03-02T17:41:38.547Z,32.67
2023-03-02T17:43:41.433Z,33.14
2023-03-02T17:45:43.069Z,32.76
2023-03-02T17:47:44.823Z,32.57
2023-03-02T17:49:46.758Z,33.24
2023-03-02T17:51:48.402Z,32.60
2023-03-02T17:53:53.060Z,33.49
2023-03-02T17:55:54.609Z,33.51
2023-03-02T17:57:56.221Z,33.89
2023-03-02T17:59:57.875Z,33.92
2023-03-02T18:01:59.455Z,33.92
2023-03-02T18:04:01.174Z,33.92
2023-03-02T18:06:02.955Z,33.32
2023-03-02T18:08:04.884Z,33.27
2023-03-02T18:10:09.024Z,33.93
2023-03-02T18:12:10.590Z,33.29
2023-03-02T18:14:15.094Z,33.47
2023-03-02T18:16:16.902Z,33.28
2023-03-02T18:18:18.538Z,33.02
2023-03-02T18:20:20.302Z,32.63
2023-03-02T18:22:21.891Z,32.46
2023-03-02T18:24:23.473Z,32.57
2023-03-02T18:26:27.463Z,32.88
2023-03-02T18:28:31.809Z,33.25
2023-03-02T18:30:33.414Z,33.27
2023-03-02T18:32:35.088Z,33.14
2023-03-02T18:34:36.623Z,33.07
2023-03-02T18:36:38.191Z,33.09
2023-03-02T18:38:40.454Z,33.24
2023-03-02T18:40:41.990Z,33.58
2023-03-02T18:42:44.950Z,33.38
2023-03-02T18:44:46.489Z,33.31
2023-03-02T18:46:48.094Z,33.32
2023-03-02T18:48:50.586Z,33.55
2023-03-02T18:50:52.100Z,34.06
2023-03-02T18:52:53.817Z,34.01
2023-03-02T18:54:55.430Z,33.77
2023-03-02T18:56:56.995Z,33.80
2023-03-02T18:58:59.891Z,33.51
2023-03-02T19:01:02.144Z,33.79
2023-03-02T19:03:03.752Z,33.56
2023-03-02T19:05:05.329Z,33.51
2023-03-02T19:07:06.874Z,33.60
2023-03-02T19:09:08.439Z,33.54
2023-03-02T19:11:10.557Z,33.55
2023-03-02T19:13:12.144Z,34.10
2023-03-02T19:15:15.426Z,34.26
2023-03-02T19:17:17.240Z,34.29
2023-03-02T19:19:18.860Z,34.08
2023-03-02T19:21:20.499Z,34.20
2023-03-02T19:23:22.108Z,34.25
2023-03-02T19:25:23.731Z,34.56
2023-03-02T19:27:25.305Z,34.26
2023-03-02T19:29:27.147Z,33.96
2023-03-02T19:31:30.294Z,33.96
2023-03-02T19:33:32.280Z,34.22
2023-03-02T19:35:34.381Z,34.29
2023-03-02T19:37:39.087Z,34.74
2023-03-02T19:39:40.962Z,34.45
2023-03-02T19:41:42.559Z,34.96
2023-03-02T19:43:44.579Z,35.13
2023-03-02T19:45:46.166Z,35.59
2023-03-02T19:47:49.218Z,35.41
2023-03-02T19:49:50.936Z,35.53
2023-03-02T19:51:52.506Z,35.33
2023-03-02T19:53:54.147Z,35.24
2023-03-02T19:55:59.764Z,35.26
2023-03-02T19:58:01.356Z,35.24
2023-03-02T20:00:04.207Z,35.63
2023-03-02T20:02:06.101Z,35.25
2023-03-02T20:04:09.039Z,35.36
2023-03-02T20:06:10.667Z,35.37
2023-03-02T20:08:12.337Z,35.26
2023-03-02T20:10:25.460Z,35.06
2023-03-02T20:12:27.116Z,35.00
2023-03-02T20:14:33.799Z,35.52
2023-03-02T20:16:36.070Z,35.44
2023-03-02T20:18:37.668Z,35.29
2023-03-02T20:20:41.421Z,35.30
2023-03-02T20:22:43.174Z,35.20
2023-03-02T20:24:44.739Z,35.48
2023-03-02T20:26:46.416Z,35.60
2023-03-02T20:28:48.564Z,36.09
2023-03-02T20:30:53.035Z,36.39
2023-03-02T20:32:56.413Z,37.13
2023-03-02T20:34:58.165Z,37.50
2023-03-02T20:37:03.142Z,37.80
2023-03-02T20:39:08.614Z,37.81
2023-03-02T20:41:11.141Z,37.98
2023-03-02T20:43:12.891Z,37.92
2023-03-02T20:45:14.628Z,38.49
2023-03-02T20:47:16.826Z,38.56
2023-03-02T20:49:18.897Z,38.53
2023-03-02T20:51:21.655Z,38.70
2023-03-02T20:53:27.931Z,38.43
2023-03-02T20:55:31.083Z,38.44
2023-03-02T20:57:33.024Z,38.30
2023-03-02T20:59:35.108Z,38.17
2023-03-02T21:01:36.935Z,38.83
2023-03-02T21:03:40.600Z,38.92
2023-03-02T21:05:42.651Z,38.88
2023-03-02T21:07:44.725Z,38.67
2023-03-02T21:09:47.708Z,39.14
2023-03-02T21:11:49.583Z,39.09
2023-03-02T21:13:53.083Z,39.05
2023-03-02T21:15:54.762Z,39.59
2023-03-02T21:17:56.850Z,39.12
2023-03-02T21:19:58.469Z,38.91
2023-03-02T21:22:02.436Z,39.53
2023-03-02T21:24:04.561Z,38.94
2023-03-02T21:26:07.756Z,37.83
2023-03-02T21:28:09.402Z,37.97
2023-03-02T21:30:16.210Z,38.39
2023-03-02T21:32:17.865Z,38.84
2023-03-02T21:34:19.760Z,39.31
2023-03-02T21:36:23.578Z,39.25
2023-03-02T21:38:25.172Z,39.46
2023-03-02T21:40:31.344Z,39.73
2023-03-02T21:42:35.230Z,39.88
2023-03-02T21:44:36.811Z,40.01
2023-03-02T21:46:39.063Z,39.65
2023-03-02T21:48:40.710Z,39.29
2023-03-02T21:50:42.984Z,38.63
2023-03-02T21:52:44.806Z,38.93
2023-03-02T21:54:46.353Z,39.43
2023-03-02T21:56:47.936Z,39.88
2023-03-02T21:58:52.568Z,40.15
2023-03-02T22:00:54.155Z,40.19
2023-03-02T22:02:56.018Z,39.90
2023-03-02T22:04:57.710Z,40.36
2023-03-02T22:06:59.238Z,40.57
2023-03-02T22:09:01.211Z,40.19
2023-03-02T22:11:02.855Z,39.96
2023-03-02T22:13:15.318Z,40.52
2023-03-02T22:15:18.269Z,40.74
2023-03-02T22:17:24.111Z,40.69
2023-03-02T22:19:28.265Z,40.81
2023-03-02T22:21:41.153Z,40.67
2023-03-02T22:23:42.927Z,40.75
2023-03-02T22:25:44.875Z,40.76
2023-03-02T22:27:47.184Z,40.86
2023-03-02T22:29:49.408Z,40.70
2023-03-02T22:31:54.277Z,40.58
2023-03-02T22:33:55.871Z,40.90
2023-03-02T22:36:11.620Z,40.92
2023-03-02T22:38:18.686Z,41.07
2023-03-02T22:40:28.005Z,41.35
2023-03-02T22:42:30.531Z,41.33
2023-03-02T22:44:35.014Z,41.34
2023-03-02T22:46:36.621Z,41.01
2023-03-02T22:48:40.581Z,38.82
2023-03-02T22:50:43.568Z,38.31
2023-03-02T22:52:45.125Z,38.24
2023-03-02T22:54:46.826Z,38.41
2023-03-02T22:56:50.795Z,38.72
2023-03-02T22:58:52.937Z,39.22
2023-03-02T23:00:55.118Z,40.01
2023-03-02T23:02:56.831Z,40.00
2023-03-02T23:04:59.736Z,40.66
2023-03-02T23:07:10.464Z,40.78
2023-03-02T23:09:14.268Z,40.74
2023-03-02T23:11:18.934Z,40.49
2023-03-02T23:13:24.651Z,39.92
2023-03-02T23:15:27.742Z,39.73
2023-03-02T23:17:34.939Z,40.47
2023-03-02T23:19:36.950Z,40.31
2023-03-02T23:21:44.416Z,40.19
2023-03-02T23:23:46.219Z,40.39
2023-03-02T23:25:48.139Z,40.35
2023-03-02T23:27:49.696Z,40.44
2023-03-02T23:29:51.708Z,40.15
2023-03-02T23:31:53.775Z,40.60
2023-03-02T23:33:55.572Z,41.27
2023-03-02T23:35:57.287Z,41.15
2023-03-02T23:38:00.379Z,41.66
2023-03-02T23:40:02.215Z,41.45
2023-03-02T23:42:03.941Z,41.48
2023-03-02T23:44:06.543Z,41.42
2023-03-02T23:46:08.268Z,41.87
2023-03-02T23:48:09.940Z,41.59
2023-03-02T23:50:12.661Z,42.03
2023-03-02T23:52:14.180Z,42.18
2023-03-02T23:54:17.344Z,42.01
2023-03-02T23:56:19.332Z,42.12
2023-03-02T23:58:21.271Z,41.83
